Jump to content

lester

Members
  • Content count

    400
  • Joined

  • Last visited

About lester

  • Rank
    Lurkiest Poster Ever
  • Birthday 11/20/1988

Contact Methods

  • Website URL
    http://www.facebook.com/lester.rice
  • Yahoo
    lesterjr2006

Profile Information

  • Four Letter Airport Code For Weather Obs (Such as KDCA)
    KADW
  • Gender
    Male
  • Location:
    Suitland, MD
  • Interests
    JESUS, Computers, Music

Recent Profile Visitors

The recent visitors block is disabled and is not being shown to other users.

  1. 39/32 at Andrews, good luck everyone! Sent from my RCT6S03W12 using Tapatalk
  2. lester

    PD3.5 Lite Obs and Nowcasting

    URGENT - WINTER WEATHER MESSAGE National Weather Service Baltimore MD/Washington DC 452 PM EST Sat Feb 17 2018 DCZ001-MDZ013-014-504-506-VAZ053-054-506-180500- /O.EXA.KLWX.WW.Y.0009.000000T0000Z-180218T0500Z/ District of Columbia-Prince Georges-Anne Arundel- Central and Southeast Montgomery-Central and Southeast Howard- Fairfax-Arlington/Falls Church/Alexandria-Eastern Loudoun- 452 PM EST Sat Feb 17 2018 ...WINTER WEATHER ADVISORY IN EFFECT UNTIL MIDNIGHT EST TONIGHT... * WHAT...Wet snow. Snow accumulations of up to two inches are expected. * WHERE...Metropolitan Washington DC. * WHEN...Until midnight EST tonight. * ADDITIONAL DETAILS...Plan on slippery road conditions. Be prepared for reduced visibilities at times. PRECAUTIONARY/PREPAREDNESS ACTIONS... A Winter Weather Advisory for wet snow means periods of wet snow will cause primarily travel difficulties. Be prepared for snow covered roads and limited visibilities, and use caution while driving. The latest road conditions for the state you are calling from can be obtained by calling 5 1 1. && $$
  3. lester

    PD3.5 Lite Obs and Nowcasting

    32/31 in Suitland, Grass, cartops have caved, pavement is caving
  4. lester

    PD3.5 Lite Obs and Nowcasting

    38/26
  5. lester

    Model discussion--1/5-1/8 Period of Interest

    MDZ013-014-070315- /O.EXA.KLWX.WW.Y.0002.170107T0800Z-170107T2000Z/ PRINCE GEORGES-ANNE ARUNDEL- 212 PM EST FRI JAN 6 2017 ...WINTER WEATHER ADVISORY IN EFFECT FROM 3 AM TO 3 PM EST SATURDAY... THE NATIONAL WEATHER SERVICE IN BALTIMORE MD/WASHINGTON HAS ISSUED A WINTER WEATHER ADVISORY FOR SNOW... WHICH IS IN EFFECT FROM 3 AM TO 3 PM EST SATURDAY. * PRECIPITATION TYPE...SNOW. * ACCUMULATIONS...1 TO 3 INCHES. * TIMING...LATE TONIGHT INTO SATURDAY AFTERNOON. * IMPACTS...SNOW ON ROADS WILL RESULT IN TRAVEL IMPACTS. * WINDS...NORTH 10 TO 15 MPH WITH GUSTS UP TO 25 MPH. * TEMPERATURES...IN THE MID 20S. PRECAUTIONARY/PREPAREDNESS ACTIONS... A WINTER WEATHER ADVISORY FOR SNOW MEANS THAT PERIODS OF SNOW WILL CAUSE PRIMARILY TRAVEL DIFFICULTIES. BE PREPARED FOR SNOW COVERED ROADS AND LIMITED VISIBILITIES...AND USE CAUTION WHILE DRIVING. &&
  6. KDCA 231952Z 35025G31KT 1/8SM R01/1200V1400FT +SN BLSN VV006 M03/M04 A2957 RMK AO2 PK WND 35033/1940 SLP012 P0003 T10331044 $
  7. are you sure that's sleet? It could be rimed snow or graupel
  8. BWI has 7" on the ground now via METAR
  9. KBWI 221859Z 08007KT 1 3/4SM -SN BKN026 OVC049 M04/M11 A3019 RMK AO2 P0000 T10391106 KDCA 221858Z 04011KT 1 1/2SM R01/5500VP6000FT -SN OVC024 M04/M08 A3018 RMK AO2 PRESFR P0001 T10391078
  10. First tiny flakes in Suitland
  11. lester

    Pre-storm Banter Thread

    Now you're bringing up bad memories of when I had to go to school when the county was closed for snow -_-
×